createdAt,value
2023-02-19T00:03:30.996Z,10.2
2023-02-19T00:13:32.626Z,10.2
2023-02-19T00:23:34.617Z,10.3
2023-02-19T00:33:36.977Z,10.4
2023-02-19T00:43:39.599Z,10.4
2023-02-19T00:53:41.600Z,10.4
2023-02-19T00:54:03.512Z,10.4
2023-02-19T01:03:51.367Z,10.4
2023-02-19T01:13:53.437Z,10.4
2023-02-19T01:23:55.341Z,10.4
2023-02-19T01:33:57.454Z,10.4
2023-02-19T01:43:59.481Z,10.4
2023-02-19T01:54:02.071Z,10.3
2023-02-19T02:04:04.616Z,10.2
2023-02-19T02:14:06.991Z,10.1
2023-02-19T02:24:09.565Z,10
2023-02-19T02:34:12.066Z,10
2023-02-19T02:44:14.510Z,9.9
2023-02-19T02:54:16.853Z,9.8
2023-02-19T03:04:18.627Z,9.8
2023-02-19T03:14:21.123Z,9.8
2023-02-19T03:24:23.092Z,9.9
2023-02-19T03:34:26.180Z,9.8
2023-02-19T03:44:26.888Z,9.8
2023-02-19T03:54:28.986Z,9.8
2023-02-19T04:04:30.887Z,9.8
2023-02-19T04:24:34.811Z,9.6
2023-02-19T04:34:36.903Z,9.6
2023-02-19T04:44:39.213Z,9.6
2023-02-19T04:54:41.154Z,9.5
2023-02-19T05:04:43.428Z,9.5
2023-02-19T05:14:45.883Z,9.5
2023-02-19T05:24:47.684Z,9.5
2023-02-19T05:34:49.390Z,9.5
2023-02-19T05:44:51.407Z,9.5
2023-02-19T05:54:53.548Z,9.4
2023-02-19T06:04:55.268Z,9.4
2023-02-19T06:14:57.927Z,9.4
2023-02-19T06:25:00.190Z,9.3
2023-02-19T06:35:01.901Z,9.1
2023-02-19T06:45:03.988Z,9.1
2023-02-19T06:55:05.947Z,9.1
2023-02-19T07:05:08.422Z,9.1
2023-02-19T07:15:10.636Z,9.2
2023-02-19T07:25:13.013Z,9.2
2023-02-19T07:35:15.330Z,9.2
2023-02-19T07:45:17.651Z,9.2
2023-02-19T07:55:20.120Z,9.1
2023-02-19T08:05:22.486Z,9.1
2023-02-19T08:15:24.752Z,9.1
2023-02-19T08:25:26.855Z,9.1
2023-02-19T08:35:29.273Z,9.2
2023-02-19T08:45:31.711Z,9.2
2023-02-19T08:55:34.103Z,9.2
2023-02-19T09:05:36.672Z,9.1
2023-02-19T09:15:38.500Z,9.2
2023-02-19T09:25:41.029Z,9.3
2023-02-19T09:35:43.278Z,9.4
2023-02-19T09:45:45.768Z,9.5
2023-02-19T09:55:47.514Z,9.4
2023-02-19T10:05:49.200Z,9.4
2023-02-19T10:15:50.913Z,9.5
2023-02-19T10:25:53.261Z,9.5
2023-02-19T10:35:55.648Z,9.5
2023-02-19T10:45:57.956Z,8.7
2023-02-19T10:55:59.759Z,7.8
2023-02-19T11:06:01.986Z,7.7
2023-02-19T11:26:06.620Z,7.4
2023-02-19T11:36:08.870Z,7.2
2023-02-19T11:46:11.185Z,7.2
2023-02-19T11:56:13.054Z,7.3
2023-02-19T12:06:15.182Z,7.4
2023-02-19T12:16:17.512Z,7.6
2023-02-19T12:26:19.563Z,7.5
2023-02-19T12:36:21.492Z,7.7
2023-02-19T12:46:23.642Z,7.8
2023-02-19T12:56:26.224Z,7.8
2023-02-19T13:06:28.311Z,7.7
2023-02-19T13:16:30.063Z,7.7
2023-02-19T13:26:32.388Z,7.9
2023-02-19T13:36:34.791Z,7.9
2023-02-19T13:46:37.052Z,7.8
2023-02-19T13:56:39.675Z,7.8
2023-02-19T14:16:43.762Z,7.9
2023-02-19T14:26:45.487Z,7.9
2023-02-19T14:36:47.164Z,7.9
2023-02-19T14:46:48.916Z,7.7
2023-02-19T14:56:51.450Z,7.8
2023-02-19T15:06:53.418Z,7.8
2023-02-19T15:16:55.105Z,7.8
2023-02-19T15:26:57.165Z,7.8
2023-02-19T15:36:59.671Z,7.9
2023-02-19T15:47:02.021Z,8.1
2023-02-19T15:57:04.306Z,8.2
2023-02-19T16:07:06.720Z,8.3
2023-02-19T16:17:08.951Z,8.4
2023-02-19T16:27:10.877Z,8.4
2023-02-19T16:37:12.977Z,8.4
2023-02-19T16:47:14.781Z,8.4
2023-02-19T16:57:16.629Z,8.4
2023-02-19T17:07:18.607Z,8.4
2023-02-19T17:27:23.722Z,8.3
2023-02-19T17:37:25.488Z,8.3
2023-02-19T17:47:27.740Z,8.1
2023-02-19T17:57:30.159Z,8
2023-02-19T18:07:31.924Z,7.9
2023-02-19T18:17:33.776Z,7.6
2023-02-19T18:27:35.894Z,7.4
2023-02-19T18:37:37.837Z,7.1
2023-02-19T18:47:40.369Z,6.9
2023-02-19T18:57:42.087Z,6.8
2023-02-19T19:07:44.264Z,6.8
2023-02-19T19:17:46.774Z,6.7
2023-02-19T19:27:48.713Z,6.6
2023-02-19T19:37:51.097Z,6.5
2023-02-19T19:57:55.077Z,6.5
2023-02-19T20:07:57.031Z,6.5
2023-02-19T20:17:58.954Z,6.5
2023-02-19T20:28:01.157Z,6.5
2023-02-19T20:38:03.820Z,6.5
2023-02-19T20:48:05.560Z,6.5
2023-02-19T20:58:08.098Z,6.5
2023-02-19T21:08:10.550Z,6.4
2023-02-19T21:18:13.167Z,6.4
2023-02-19T21:28:14.975Z,6.4
2023-02-19T21:38:17.178Z,6.4
2023-02-19T21:48:19.413Z,6.4
2023-02-19T21:58:21.582Z,6.5
2023-02-19T22:08:23.866Z,6.5
2023-02-19T22:18:25.709Z,6.5
2023-02-19T22:28:27.667Z,6.4
2023-02-19T22:48:31.832Z,6.4
2023-02-19T22:58:34.108Z,6.2
2023-02-19T23:08:36.669Z,6.1
2023-02-19T23:18:39.133Z,6
2023-02-19T23:28:41.659Z,5.9
2023-02-19T23:38:43.456Z,5.8
2023-02-19T23:48:45.266Z,5.8
2023-02-19T23:58:47.619Z,5.8
